createdAt,value
2022-12-15T00:00:48.975Z,99130.01
2022-12-15T00:03:46.659Z,99134.92
2022-12-15T00:06:33.559Z,99135.06
2022-12-15T00:09:20.774Z,99134.35
2022-12-15T00:12:08.147Z,99141.85
2022-12-15T00:14:55.459Z,99143.48
2022-12-15T00:17:42.414Z,99139.77
2022-12-15T00:20:29.617Z,99139.87
2022-12-15T00:23:16.898Z,99136.34
2022-12-15T00:26:03.714Z,99136.11
2022-12-15T00:28:50.476Z,99134.83
2022-12-15T00:31:37.485Z,99134.66
2022-12-15T00:34:24.611Z,99129.58
2022-12-15T00:37:11.556Z,99131.45
2022-12-15T00:39:40.860Z,99126.14
2022-12-15T00:42:10.019Z,99125.18
2022-12-15T00:44:38.134Z,99122.66
2022-12-15T00:47:06.468Z,99124.46
2022-12-15T00:49:53.626Z,99131.23
2022-12-15T00:52:41.327Z,99126.63
2022-12-15T00:55:28.425Z,99125.09
2022-12-15T00:58:15.311Z,99125.48
2022-12-15T01:01:02.207Z,99127.95
2022-12-15T01:03:49.041Z,99129.86
2022-12-15T01:06:38.404Z,99133.59
2022-12-15T01:09:27.985Z,99129.67
2022-12-15T01:12:14.870Z,99125.12
2022-12-15T01:15:02.092Z,99122.73
2022-12-15T01:17:48.987Z,99119.44
2022-12-15T01:20:20.043Z,99121.62
2022-12-15T01:22:54.293Z,99119.61
2022-12-15T01:25:26.090Z,99116.39
2022-12-15T01:27:54.807Z,99117.02
2022-12-15T01:30:25.851Z,99113.96
2022-12-15T01:32:53.997Z,99113.58
2022-12-15T01:35:22.784Z,99116.77
2022-12-15T01:37:50.918Z,99118.80
2022-12-15T01:40:39.438Z,99121.02
2022-12-15T01:43:38.205Z,99122.89
2022-12-15T01:46:20.551Z,99126.81
2022-12-15T01:49:03.235Z,99130.41
2022-12-15T01:51:37.747Z,99129.75
2022-12-15T01:54:05.926Z,99127.74
2022-12-15T01:56:40.385Z,99126.04
2022-12-15T01:59:12.789Z,99130.16
2022-12-15T02:01:41.148Z,99136.18
2022-12-15T02:04:09.502Z,99135.08
2022-12-15T02:06:38.147Z,99128.66
2022-12-15T02:09:06.491Z,99132.73
2022-12-15T02:11:56.374Z,99136.77
2022-12-15T02:14:50.566Z,99136.21
2022-12-15T02:17:34.891Z,99138.48
2022-12-15T02:20:15.011Z,99137.08
2022-12-15T02:23:02.655Z,99137.60
2022-12-15T02:26:01.197Z,99143.29
2022-12-15T02:28:52.121Z,99145.33
2022-12-15T02:31:50.997Z,99146.79
2022-12-15T02:34:27.656Z,99151.73
2022-12-15T02:37:05.863Z,99146.38
2022-12-15T02:39:33.997Z,99140.23
2022-12-15T02:42:02.217Z,99135.97
2022-12-15T02:44:30.315Z,99138.77
2022-12-15T02:47:10.738Z,99144.13
2022-12-15T02:49:51.245Z,99147.46
2022-12-15T02:52:57.951Z,99147.64
2022-12-15T02:55:50.662Z,99152.02
2022-12-15T02:58:28.489Z,99155.73
2022-12-15T03:01:10.469Z,99164.09
2022-12-15T03:03:40.330Z,99165.17
2022-12-15T03:06:09.647Z,99165.75
2022-12-15T03:08:37.749Z,99164.77
2022-12-15T03:11:05.976Z,99164.06
2022-12-15T03:13:34.589Z,99161.29
2022-12-15T03:16:03.095Z,99158.83
2022-12-15T03:18:31.417Z,99167.75
2022-12-15T03:20:59.829Z,99169.23
2022-12-15T03:23:28.900Z,99175.35
2022-12-15T03:25:57.342Z,99173.61
2022-12-15T03:28:25.583Z,99172.22
2022-12-15T03:30:54.227Z,99165.77
2022-12-15T03:33:22.754Z,99167.20
2022-12-15T03:35:51.387Z,99160.52
2022-12-15T03:38:19.537Z,99167.40
2022-12-15T03:40:47.612Z,99168.55
2022-12-15T03:43:15.812Z,99166.88
2022-12-15T03:45:43.995Z,99166.94
2022-12-15T03:48:12.138Z,99165.06
2022-12-15T03:50:41.010Z,99165.68
2022-12-15T03:53:09.983Z,99173.77
2022-12-15T03:55:38.102Z,99176.11
2022-12-15T03:58:06.321Z,99178.05
2022-12-15T04:00:34.760Z,99181.19
2022-12-15T04:03:02.953Z,99187.98
2022-12-15T04:05:34.922Z,99193.18
2022-12-15T04:08:03.957Z,99197.39
2022-12-15T04:10:35.298Z,99193.23
2022-12-15T04:13:05.011Z,99190.94
2022-12-15T04:15:34.167Z,99190.96
2022-12-15T04:18:04.166Z,99192.02
2022-12-15T04:20:33.232Z,99193.52
2022-12-15T04:23:01.698Z,99192.83
2022-12-15T04:25:48.508Z,99193.79
2022-12-15T04:28:35.466Z,99190.03
2022-12-15T04:31:27.815Z,99188.05
2022-12-15T04:34:20.071Z,99187.91
2022-12-15T04:37:09.848Z,99189.17
2022-12-15T04:39:58.739Z,99195.11
2022-12-15T04:42:45.968Z,99201.80
2022-12-15T04:45:35.471Z,99201.40
2022-12-15T04:48:23.304Z,99201.23
2022-12-15T04:51:10.047Z,99206.38
2022-12-15T04:53:56.969Z,99209.30
2022-12-15T04:56:43.876Z,99213.17
2022-12-15T04:59:31.459Z,99222.90
2022-12-15T05:02:18.474Z,99219.44
2022-12-15T05:05:05.491Z,99219.87
2022-12-15T05:07:52.160Z,99218.95
2022-12-15T05:10:38.953Z,99220.02
2022-12-15T05:13:27.334Z,99225.56
2022-12-15T05:16:14.232Z,99224.38
2022-12-15T05:19:01.009Z,99225.69
2022-12-15T05:21:47.874Z,99229.64
2022-12-15T05:24:34.780Z,99226.83
2022-12-15T05:27:21.656Z,99227.53
2022-12-15T05:30:08.760Z,99227.05
2022-12-15T05:32:37.528Z,99227.36
2022-12-15T05:35:05.945Z,99222.98
2022-12-15T05:37:34.235Z,99230.13
2022-12-15T05:40:02.350Z,99226.35
2022-12-15T05:42:30.909Z,99225.21
2022-12-15T05:44:59.253Z,99222.09
2022-12-15T05:47:28.015Z,99220.14
2022-12-15T05:49:56.268Z,99227.48
2022-12-15T05:52:24.632Z,99226.52
2022-12-15T05:54:52.839Z,99226.95
2022-12-15T05:57:21.150Z,99234.69
2022-12-15T05:59:49.255Z,99242.12
2022-12-15T06:02:17.585Z,99244.14
2022-12-15T06:04:45.877Z,99243.80
2022-12-15T06:07:13.982Z,99245.73
2022-12-15T06:09:42.687Z,99247.56
2022-12-15T06:12:10.828Z,99247.09
2022-12-15T06:14:38.902Z,99249.02
2022-12-15T06:17:07.204Z,99255.96
2022-12-15T06:19:35.286Z,99258.67
2022-12-15T06:22:03.373Z,99268.52
2022-12-15T06:24:31.559Z,99272.06
2022-12-15T06:26:59.664Z,99285.80
2022-12-15T06:29:27.756Z,99292.11
2022-12-15T06:31:56.316Z,99294.25
2022-12-15T06:34:24.606Z,99304.16
2022-12-15T06:36:52.730Z,99310.20
2022-12-15T06:39:20.975Z,99310.80
2022-12-15T06:41:49.106Z,99310.81
2022-12-15T06:44:17.301Z,99318.03
2022-12-15T06:46:46.649Z,99318.72
2022-12-15T06:49:15.007Z,99316.27
2022-12-15T06:51:44.243Z,99332.00
2022-12-15T06:54:13.132Z,99328.30
2022-12-15T06:56:41.463Z,99327.92
2022-12-15T06:59:11.264Z,99333.48
2022-12-15T07:01:39.658Z,99332.84
2022-12-15T07:04:08.061Z,99337.00
2022-12-15T07:06:38.224Z,99339.41
2022-12-15T07:09:08.573Z,99340.56
2022-12-15T07:11:37.102Z,99344.25
2022-12-15T07:14:05.303Z,99342.20
2022-12-15T07:16:33.726Z,99347.97
2022-12-15T07:19:02.118Z,99350.41
2022-12-15T07:21:30.999Z,99352.29
2022-12-15T07:24:00.525Z,99357.26
2022-12-15T07:26:30.619Z,99360.52
2022-12-15T07:28:58.826Z,99367.41
2022-12-15T07:31:27.368Z,99372.17
2022-12-15T07:33:57.957Z,99374.52
2022-12-15T07:36:27.827Z,99376.58
2022-12-15T07:39:01.098Z,99382.43
2022-12-15T07:41:30.309Z,99382.06
2022-12-15T07:43:58.975Z,99382.11
2022-12-15T07:46:27.504Z,99384.02
2022-12-15T07:48:55.718Z,99385.40
2022-12-15T07:51:23.910Z,99390.83
2022-12-15T07:53:52.070Z,99386.76
2022-12-15T07:56:23.793Z,99394.48
2022-12-15T07:58:52.014Z,99397.35
2022-12-15T08:01:20.310Z,99405.98
2022-12-15T08:03:49.255Z,99410.15
2022-12-15T08:06:17.484Z,99414.52
2022-12-15T08:08:50.256Z,99415.76
2022-12-15T08:11:22.198Z,99416.36
2022-12-15T08:14:10.429Z,99413.16
2022-12-15T08:16:39.283Z,99410.00
2022-12-15T08:19:11.100Z,99411.27
2022-12-15T08:21:41.455Z,99413.30
2022-12-15T08:24:10.667Z,99417.85
2022-12-15T08:26:39.156Z,99425.42
2022-12-15T08:29:49.758Z,99427.87
2022-12-15T08:31:59.009Z,99426.54
2022-12-15T08:34:27.816Z,99427.95
2022-12-15T08:36:55.915Z,99421.90
2022-12-15T08:39:24.083Z,99424.09
2022-12-15T08:41:52.279Z,99424.95
2022-12-15T08:44:20.408Z,99428.56
2022-12-15T08:46:48.593Z,99443.01
2022-12-15T08:49:21.709Z,99447.16
2022-12-15T08:51:51.558Z,99446.02
2022-12-15T08:54:20.762Z,99447.30
2022-12-15T08:56:49.585Z,99448.55
2022-12-15T08:59:17.860Z,99455.95
2022-12-15T09:01:46.117Z,99463.94
2022-12-15T09:04:15.363Z,99467.42
2022-12-15T09:06:44.075Z,99460.58
2022-12-15T09:09:16.659Z,99460.59
2022-12-15T09:11:44.870Z,99457.98
2022-12-15T09:14:13.094Z,99454.96
2022-12-15T09:16:41.310Z,99454.06
2022-12-15T09:19:10.173Z,99457.14
2022-12-15T09:21:40.022Z,99454.67
2022-12-15T09:24:08.083Z,99456.48
2022-12-15T09:26:36.225Z,99453.91
2022-12-15T09:29:04.496Z,99454.48
2022-12-15T09:31:36.920Z,99449.47
2022-12-15T09:34:05.116Z,99447.51
2022-12-15T09:36:33.461Z,99443.98
2022-12-15T09:39:02.941Z,99444.30
2022-12-15T09:41:34.714Z,99441.16
2022-12-15T09:44:17.912Z,99437.83
2022-12-15T09:47:12.100Z,99428.47
2022-12-15T09:49:40.283Z,99430.42
2022-12-15T09:52:56.930Z,99427.09
2022-12-15T09:55:30.992Z,99422.15
2022-12-15T09:58:10.786Z,99416.27
2022-12-15T10:01:06.138Z,99419.27
2022-12-15T10:04:08.148Z,99420.58
2022-12-15T10:07:19.240Z,99423.88
2022-12-15T10:09:47.697Z,99434.97
2022-12-15T10:12:25.518Z,99436.33
2022-12-15T10:18:22.541Z,99421.81
2022-12-15T10:21:02.191Z,99450.91
2022-12-15T10:23:30.911Z,99453.05
2022-12-15T10:26:16.117Z,99452.94
2022-12-15T10:29:05.397Z,99454.35
2022-12-15T10:31:51.846Z,99456.48
2022-12-15T10:34:33.782Z,99459.29
2022-12-15T10:37:03.495Z,99461.52
2022-12-15T10:39:40.611Z,99464.20
2022-12-15T10:42:23.972Z,99462.14
2022-12-15T10:44:55.421Z,99461.71
2022-12-15T10:47:27.386Z,99459.72
2022-12-15T10:50:19.557Z,99459.11
2022-12-15T10:52:52.469Z,99453.37
2022-12-15T10:55:40.836Z,99444.42
2022-12-15T10:58:23.211Z,99444.95
2022-12-15T11:01:14.731Z,99437.45
2022-12-15T11:03:43.340Z,99437.21
2022-12-15T11:06:33.395Z,99436.14
2022-12-15T11:09:34.872Z,99439.37
2022-12-15T11:15:22.020Z,99447.08
2022-12-15T11:18:20.810Z,99445.47
2022-12-15T11:21:20.273Z,99449.54
2022-12-15T11:24:12.147Z,99443.60
2022-12-15T11:26:47.086Z,99446.02
2022-12-15T11:29:26.382Z,99448.92
2022-12-15T11:31:57.154Z,99448.95
2022-12-15T11:34:46.209Z,99448.05
2022-12-15T11:37:15.587Z,99450.46
2022-12-15T11:39:56.106Z,99449.11
2022-12-15T11:42:53.581Z,99453.27
2022-12-15T11:45:31.797Z,99453.84
2022-12-15T11:48:15.239Z,99460.05
2022-12-15T11:51:06.263Z,99456.20
2022-12-15T11:53:56.241Z,99460.83
2022-12-15T11:56:33.385Z,99461.13
2022-12-15T11:59:29.656Z,99464.38
2022-12-15T12:02:12.946Z,99465.86
2022-12-15T12:05:03.158Z,99468.67
2022-12-15T12:08:00.325Z,99471.41
2022-12-15T12:10:48.550Z,99471.23
2022-12-15T12:13:29.532Z,99473.20
2022-12-15T12:16:14.354Z,99481.59
2022-12-15T12:19:08.390Z,99489.55
2022-12-15T12:21:45.271Z,99495.52
2022-12-15T12:24:32.055Z,99492.81
2022-12-15T12:27:10.959Z,99494.02
2022-12-15T12:29:50.037Z,99495.98
2022-12-15T12:32:50.708Z,99491.52
2022-12-15T12:35:36.472Z,99485.85
2022-12-15T12:38:07.402Z,99480.59
2022-12-15T12:40:41.726Z,99485.44
2022-12-15T12:43:20.520Z,99488.16
2022-12-15T12:45:55.489Z,99495.02
2022-12-15T12:48:33.487Z,99494.80
2022-12-15T12:51:38.022Z,99492.83
2022-12-15T12:54:37.035Z,99499.64
2022-12-15T12:57:11.577Z,99502.28
2022-12-15T13:00:03.119Z,99499.30
2022-12-15T13:02:31.743Z,99502.43
2022-12-15T13:05:23.910Z,99509.21
2022-12-15T13:08:05.479Z,99510.96
2022-12-15T13:10:39.205Z,99516.86
2022-12-15T13:13:29.595Z,99520.66
2022-12-15T13:16:11.188Z,99519.31
2022-12-15T13:19:07.073Z,99525.15
2022-12-15T13:21:42.000Z,99527.87
2022-12-15T13:24:22.010Z,99526.55
2022-12-15T13:26:50.306Z,99527.48
2022-12-15T13:29:25.271Z,99534.41
2022-12-15T13:31:54.169Z,99540.16
2022-12-15T13:34:26.300Z,99543.05
2022-12-15T13:36:57.236Z,99547.99
2022-12-15T13:39:28.352Z,99547.84
2022-12-15T13:42:33.454Z,99551.73
2022-12-15T13:44:55.075Z,99553.83
2022-12-15T13:47:26.306Z,99555.40
2022-12-15T13:50:16.108Z,99560.33
2022-12-15T13:55:52.738Z,99582.52
2022-12-15T13:58:24.071Z,99586.71
2022-12-15T14:00:58.373Z,99588.45
2022-12-15T14:03:27.564Z,99593.67
2022-12-15T14:05:58.805Z,99589.35
2022-12-15T14:08:31.078Z,99590.27
2022-12-15T14:11:11.450Z,99591.22
2022-12-15T14:13:54.292Z,99592.34
2022-12-15T14:16:23.641Z,99590.34
2022-12-15T14:19:08.883Z,99587.09
2022-12-15T14:21:37.303Z,99588.84
2022-12-15T14:24:40.900Z,99590.38
2022-12-15T14:27:09.421Z,99593.86
2022-12-15T14:29:37.761Z,99594.01
2022-12-15T14:32:06.181Z,99590.41
2022-12-15T14:34:42.096Z,99583.40
2022-12-15T14:37:20.352Z,99583.46
2022-12-15T14:39:50.371Z,99587.33
2022-12-15T14:42:20.835Z,99583.34
2022-12-15T14:47:38.438Z,99583.73
2022-12-15T14:50:12.241Z,99587.14
2022-12-15T14:52:44.096Z,99592.14
2022-12-15T14:55:21.554Z,99597.52
2022-12-15T14:57:53.019Z,99600.61
2022-12-15T15:00:26.971Z,99604.39
2022-12-15T15:03:06.024Z,99582.52
2022-12-15T15:06:03.268Z,99601.36
2022-12-15T15:08:42.602Z,99602.39
2022-12-15T15:11:41.008Z,99610.43
2022-12-15T15:14:15.369Z,99623.34
2022-12-15T15:16:44.604Z,99625.23
2022-12-15T15:19:22.682Z,99629.07
2022-12-15T15:21:50.919Z,99633.60
2022-12-15T15:24:25.162Z,99637.95
2022-12-15T15:26:53.607Z,99639.66
2022-12-15T15:29:39.151Z,99642.38
2022-12-15T15:32:21.469Z,99649.80
2022-12-15T15:34:50.251Z,99648.23
2022-12-15T15:37:24.918Z,99645.38
2022-12-15T15:39:56.146Z,99651.02
2022-12-15T15:42:29.256Z,99654.87
2022-12-15T15:45:01.195Z,99655.04
2022-12-15T15:47:29.609Z,99652.65
2022-12-15T15:49:59.986Z,99656.85
2022-12-15T15:52:32.192Z,99658.78
2022-12-15T15:55:00.451Z,99663.04
2022-12-15T15:57:28.713Z,99661.59
2022-12-15T15:59:57.658Z,99659.73
2022-12-15T16:02:26.167Z,99661.40
2022-12-15T16:04:54.541Z,99660.68
2022-12-15T16:07:29.505Z,99660.27
2022-12-15T16:09:57.825Z,99660.88
2022-12-15T16:12:30.218Z,99663.51
2022-12-15T16:14:58.730Z,99655.83
2022-12-15T16:17:26.974Z,99654.25
2022-12-15T16:19:55.121Z,99662.67
2022-12-15T16:22:23.337Z,99656.85
2022-12-15T16:24:51.645Z,99657.80
2022-12-15T16:27:19.819Z,99659.29
2022-12-15T16:29:48.037Z,99653.65
2022-12-15T16:32:19.363Z,99648.46
2022-12-15T16:34:49.980Z,99650.80
2022-12-15T16:37:26.702Z,99653.63
2022-12-15T16:39:55.114Z,99660.05
2022-12-15T16:42:23.385Z,99657.11
2022-12-15T16:44:51.805Z,99652.52
2022-12-15T16:47:20.234Z,99654.48
2022-12-15T16:49:48.601Z,99660.79
2022-12-15T16:52:21.326Z,99666.13
2022-12-15T16:54:50.721Z,99672.60
2022-12-15T16:57:18.985Z,99674.17
2022-12-15T16:59:47.831Z,99665.76
2022-12-15T17:02:22.213Z,99666.90
2022-12-15T17:04:51.843Z,99671.17
2022-12-15T17:07:20.908Z,99672.67
2022-12-15T17:09:51.454Z,99677.27
2022-12-15T17:12:19.993Z,99682.90
2022-12-15T17:14:48.217Z,99690.05
2022-12-15T17:17:18.413Z,99684.73
2022-12-15T17:22:35.085Z,99697.70
2022-12-15T17:25:03.661Z,99698.35
2022-12-15T17:27:32.027Z,99693.98
2022-12-15T17:30:01.416Z,99692.54
2022-12-15T17:32:29.814Z,99693.88
2022-12-15T17:34:57.964Z,99695.64
2022-12-15T17:37:30.462Z,99697.02
2022-12-15T17:40:02.291Z,99697.78
2022-12-15T17:42:30.526Z,99700.99
2022-12-15T17:44:58.774Z,99707.34
2022-12-15T17:47:28.916Z,99714.69
2022-12-15T17:49:57.272Z,99722.72
2022-12-15T17:52:35.162Z,99725.35
2022-12-15T17:55:08.178Z,99725.88
2022-12-15T17:57:36.438Z,99728.36
2022-12-15T18:00:19.635Z,99728.63
2022-12-15T18:02:49.223Z,99725.27
2022-12-15T18:05:18.938Z,99727.55
2022-12-15T18:08:15.632Z,99729.54
2022-12-15T18:10:45.748Z,99728.72
2022-12-15T18:13:17.455Z,99733.05
2022-12-15T18:15:46.838Z,99737.61
2022-12-15T18:18:16.419Z,99746.01
2022-12-15T18:20:46.384Z,99755.95
2022-12-15T18:23:15.372Z,99764.21
2022-12-15T18:25:44.256Z,99771.18
2022-12-15T18:28:18.996Z,99775.91
2022-12-15T18:30:52.664Z,99784.83
2022-12-15T18:33:23.387Z,99788.98
2022-12-15T18:35:52.118Z,99798.46
2022-12-15T18:38:25.707Z,99790.27
2022-12-15T18:40:57.394Z,99792.73
2022-12-15T18:43:30.851Z,99791.45
2022-12-15T18:45:59.834Z,99781.06
2022-12-15T18:48:33.958Z,99778.30
2022-12-15T18:51:03.009Z,99784.32
2022-12-15T18:53:34.588Z,99787.98
2022-12-15T18:56:06.484Z,99801.32
2022-12-15T18:58:37.429Z,99804.04
2022-12-15T19:01:06.977Z,99802.02
2022-12-15T19:03:36.448Z,99799.15
2022-12-15T19:06:25.888Z,99800.48
2022-12-15T19:08:54.634Z,99805.84
2022-12-15T19:11:31.199Z,99805.37
2022-12-15T19:14:27.481Z,99801.67
2022-12-15T19:17:14.342Z,99798.83
2022-12-15T19:20:31.568Z,99807.96
2022-12-15T19:23:16.110Z,99800.89
2022-12-15T19:25:46.140Z,99821.71
2022-12-15T19:28:16.329Z,99829.08
2022-12-15T19:30:44.944Z,99828.73
2022-12-15T19:33:15.195Z,99827.34
2022-12-15T19:35:47.643Z,99826.17
2022-12-15T19:38:27.640Z,99828.02
2022-12-15T19:40:56.669Z,99826.77
2022-12-15T19:43:25.866Z,99819.23
2022-12-15T19:45:54.888Z,99816.46
2022-12-15T19:48:24.135Z,99816.08
2022-12-15T19:50:54.787Z,99812.96
2022-12-15T19:53:26.205Z,99811.52
2022-12-15T19:55:58.574Z,99816.50
2022-12-15T19:58:32.401Z,99809.90
2022-12-15T20:01:04.609Z,99818.15
2022-12-15T20:03:34.475Z,99823.42
2022-12-15T20:06:04.881Z,99827.33
2022-12-15T20:08:38.130Z,99833.73
2022-12-15T20:11:20.314Z,99834.07
2022-12-15T20:13:51.294Z,99844.17
2022-12-15T20:16:21.195Z,99850.19
2022-12-15T20:18:52.970Z,99856.35
2022-12-15T20:21:32.411Z,99855.73
2022-12-15T20:24:19.042Z,99854.10
2022-12-15T20:27:15.095Z,99849.94
2022-12-15T20:29:58.481Z,99841.66
2022-12-15T20:32:26.924Z,99840.77
2022-12-15T20:34:55.236Z,99839.80
2022-12-15T20:37:30.463Z,99851.14
2022-12-15T20:39:58.745Z,99853.07
2022-12-15T20:42:27.008Z,99849.17
2022-12-15T20:44:55.171Z,99852.67
2022-12-15T20:47:26.740Z,99849.19
2022-12-15T20:49:55.529Z,99849.33
2022-12-15T20:52:26.671Z,99847.92
2022-12-15T20:54:55.214Z,99841.23
2022-12-15T20:57:23.400Z,99844.91
2022-12-15T20:59:51.540Z,99853.29
2022-12-15T21:02:21.795Z,99860.79
2022-12-15T21:04:51.120Z,99860.08
2022-12-15T21:07:22.307Z,99870.70
2022-12-15T21:09:50.600Z,99878.23
2022-12-15T21:12:28.197Z,99884.29
2022-12-15T21:14:59.688Z,99882.15
2022-12-15T21:17:29.398Z,99877.59
2022-12-15T21:19:57.731Z,99873.38
2022-12-15T21:22:41.194Z,99870.73
2022-12-15T21:25:22.424Z,99873.44
2022-12-15T21:30:43.985Z,99878.39
2022-12-15T21:33:13.129Z,99875.19
2022-12-15T21:35:43.415Z,99875.04
2022-12-15T21:38:27.191Z,99870.99
2022-12-15T21:41:01.522Z,99875.30
2022-12-15T21:43:33.230Z,99874.39
2022-12-15T21:46:11.455Z,99864.02
2022-12-15T21:52:09.887Z,99866.26
2022-12-15T21:54:39.734Z,99855.88
2022-12-15T21:57:14.577Z,99857.91
2022-12-15T21:59:43.747Z,99858.65
2022-12-15T22:02:44.786Z,99856.27
2022-12-15T22:05:24.647Z,99865.88
2022-12-15T22:07:52.830Z,99870.80
2022-12-15T22:10:21.219Z,99869.30
2022-12-15T22:12:58.940Z,99873.48
2022-12-15T22:15:29.180Z,99879.10
2022-12-15T22:17:57.812Z,99879.39
2022-12-15T22:20:26.041Z,99874.33
2022-12-15T22:22:54.303Z,99873.70
2022-12-15T22:25:26.191Z,99878.13
2022-12-15T22:27:54.773Z,99867.25
2022-12-15T22:30:26.885Z,99862.81
2022-12-15T22:32:56.403Z,99863.90
2022-12-15T22:35:29.062Z,99867.43
2022-12-15T22:37:57.532Z,99869.98
2022-12-15T22:40:26.135Z,99873.60
2022-12-15T22:42:58.025Z,99872.30
2022-12-15T22:45:26.725Z,99870.96
2022-12-15T22:47:55.328Z,99878.86
2022-12-15T22:50:26.286Z,99874.95
2022-12-15T22:52:55.236Z,99871.27
2022-12-15T22:55:26.164Z,99862.80
2022-12-15T22:58:03.606Z,99867.46
2022-12-15T23:00:32.188Z,99865.59
2022-12-15T23:03:02.577Z,99865.00
2022-12-15T23:05:31.326Z,99871.12
2022-12-15T23:07:59.894Z,99879.29
2022-12-15T23:10:46.972Z,99881.48
2022-12-15T23:13:15.291Z,99882.73
2022-12-15T23:16:02.403Z,99883.77
2022-12-15T23:18:33.841Z,99887.87
2022-12-15T23:21:02.320Z,99885.42
2022-12-15T23:23:32.533Z,99885.75
2022-12-15T23:26:01.586Z,99887.27
2022-12-15T23:28:29.856Z,99887.20
2022-12-15T23:30:58.601Z,99886.32
2022-12-15T23:33:28.584Z,99885.02
2022-12-15T23:35:58.860Z,99885.27
2022-12-15T23:38:28.170Z,99884.00
2022-12-15T23:40:57.537Z,99884.17
2022-12-15T23:43:28.883Z,99886.40
2022-12-15T23:46:05.626Z,99887.41
2022-12-15T23:48:36.632Z,99879.46
2022-12-15T23:51:08.932Z,99875.48
2022-12-15T23:53:38.436Z,99876.73
2022-12-15T23:56:22.434Z,99878.44
2022-12-15T23:58:59.449Z,99880.45
